createdAt,value
2018-08-07T00:00:29.131Z,23.65
2018-08-07T00:02:58.238Z,23.57
2018-08-07T00:05:27.227Z,23.51
2018-08-07T00:07:56.706Z,23.43
2018-08-07T00:10:26.778Z,23.39
2018-08-07T00:12:55.751Z,23.31
2018-08-07T00:15:27.116Z,23.34
2018-08-07T00:17:56.180Z,23.08
2018-08-07T00:20:25.233Z,23.10
2018-08-07T00:22:54.201Z,23.02
2018-08-07T00:25:23.354Z,22.97
2018-08-07T00:27:52.361Z,22.87
2018-08-07T00:30:21.416Z,22.87
2018-08-07T00:32:50.367Z,22.98
2018-08-07T00:35:20.168Z,23.01
2018-08-07T00:37:49.252Z,22.98
2018-08-07T00:40:18.987Z,22.95
2018-08-07T00:42:48.466Z,22.87
2018-08-07T00:45:19.309Z,22.88
2018-08-07T00:47:48.549Z,22.66
2018-08-07T00:50:19.105Z,22.65
2018-08-07T00:52:48.973Z,22.39
2018-08-07T00:55:18.574Z,22.59
2018-08-07T00:57:48.717Z,22.50
2018-08-07T01:00:17.784Z,22.66
2018-08-07T01:02:46.754Z,22.56
2018-08-07T01:05:16.754Z,22.55
2018-08-07T01:07:45.757Z,22.55
2018-08-07T01:10:17.130Z,22.59
2018-08-07T01:12:46.188Z,22.48
2018-08-07T01:15:17.210Z,22.33
2018-08-07T01:17:46.606Z,22.17
2018-08-07T01:20:16.899Z,22.17
2018-08-07T01:22:46.283Z,22.24
2018-08-07T01:25:19.162Z,22.28
2018-08-07T01:27:48.281Z,22.37
2018-08-07T01:30:18.975Z,22.24
2018-08-07T01:32:47.950Z,22.00
2018-08-07T01:35:16.915Z,22.00
2018-08-07T01:37:45.894Z,22.13
2018-08-07T01:40:14.945Z,22.09
2018-08-07T01:42:44.069Z,22.10
2018-08-07T01:45:13.125Z,22.13
2018-08-07T01:47:42.247Z,21.99
2018-08-07T01:50:12.646Z,21.84
2018-08-07T01:52:41.610Z,22.00
2018-08-07T01:55:15.719Z,21.99
2018-08-07T01:57:44.722Z,22.01
2018-08-07T02:00:13.869Z,21.85
2018-08-07T02:02:42.863Z,21.96
2018-08-07T02:05:12.939Z,21.78
2018-08-07T02:07:42.683Z,21.68
2018-08-07T02:10:17.596Z,21.66
2018-08-07T02:12:46.578Z,21.80
2018-08-07T02:15:15.950Z,21.74
2018-08-07T02:17:44.951Z,21.74
2018-08-07T02:20:15.376Z,21.72
2018-08-07T02:22:44.850Z,21.55
2018-08-07T02:25:15.575Z,21.33
2018-08-07T02:27:45.026Z,21.46
2018-08-07T02:30:15.349Z,21.55
2018-08-07T02:32:44.431Z,21.20
2018-08-07T02:35:14.739Z,21.07
2018-08-07T02:37:44.802Z,21.20
2018-08-07T02:40:14.726Z,21.25
2018-08-07T02:42:44.047Z,20.92
2018-08-07T02:45:14.898Z,20.89
2018-08-07T02:47:44.552Z,20.62
2018-08-07T02:50:15.350Z,20.71
2018-08-07T02:52:44.381Z,20.58
2018-08-07T02:55:13.526Z,20.51
2018-08-07T02:57:43.102Z,20.48
2018-08-07T03:00:16.911Z,20.56
2018-08-07T03:02:46.147Z,20.74
2018-08-07T03:05:15.427Z,20.87
2018-08-07T03:07:44.480Z,20.62
2018-08-07T03:10:13.679Z,20.64
2018-08-07T03:12:42.663Z,20.51
2018-08-07T03:15:15.637Z,20.46
2018-08-07T03:17:45.615Z,20.37
2018-08-07T03:20:14.718Z,20.28
2018-08-07T03:22:43.713Z,20.41
2018-08-07T03:25:13.587Z,20.22
2018-08-07T03:27:43.647Z,20.37
2018-08-07T03:30:14.533Z,20.36
2018-08-07T03:32:43.689Z,20.40
2018-08-07T03:35:12.697Z,20.50
2018-08-07T03:37:41.977Z,20.62
2018-08-07T03:40:13.408Z,20.41
2018-08-07T03:42:42.535Z,20.27
2018-08-07T03:45:13.490Z,20.41
2018-08-07T03:47:43.034Z,20.53
2018-08-07T03:50:12.134Z,20.39
2018-08-07T03:52:41.081Z,20.47
2018-08-07T03:55:13.037Z,20.37
2018-08-07T03:57:42.878Z,20.31
2018-08-07T04:00:16.660Z,20.23
2018-08-07T04:02:45.729Z,20.37
2018-08-07T04:05:14.826Z,20.59
2018-08-07T04:07:43.848Z,20.39
2018-08-07T04:10:14.148Z,20.29
2018-08-07T04:12:43.102Z,20.32
2018-08-07T04:15:13.870Z,20.27
2018-08-07T04:17:43.402Z,20.16
2018-08-07T04:20:13.951Z,20.25
2018-08-07T04:22:42.999Z,20.19
2018-08-07T04:25:12.034Z,20.15
2018-08-07T04:27:41.061Z,20.03
2018-08-07T04:30:13.387Z,20.01
2018-08-07T04:32:42.782Z,19.97
2018-08-07T04:35:12.200Z,19.98
2018-08-07T04:37:41.213Z,19.98
2018-08-07T04:40:10.545Z,20.06
2018-08-07T04:42:40.337Z,20.09
2018-08-07T04:45:12.652Z,20.18
2018-08-07T04:47:41.954Z,20.08
2018-08-07T04:50:11.073Z,20.37
2018-08-07T04:52:40.287Z,20.46
2018-08-07T04:55:10.142Z,20.51
2018-08-07T04:57:39.195Z,20.30
2018-08-07T05:00:13.144Z,20.32
2018-08-07T05:02:42.339Z,20.56
2018-08-07T05:05:11.330Z,20.50
2018-08-07T05:07:40.411Z,20.46
2018-08-07T05:10:11.647Z,20.60
2018-08-07T05:12:40.871Z,20.76
2018-08-07T05:15:10.623Z,20.93
2018-08-07T05:17:40.449Z,20.90
2018-08-07T05:20:09.471Z,21.06
2018-08-07T05:22:39.251Z,21.31
2018-08-07T05:25:09.191Z,21.30
2018-08-07T05:27:38.315Z,21.37
2018-08-07T05:30:09.019Z,21.41
2018-08-07T05:32:37.961Z,21.31
2018-08-07T05:35:07.160Z,21.40
2018-08-07T05:37:36.050Z,21.47
2018-08-07T05:40:05.117Z,21.42
2018-08-07T05:42:34.203Z,21.58
2018-08-07T05:45:03.267Z,21.73
2018-08-07T05:47:33.035Z,21.85
2018-08-07T05:50:02.243Z,21.89
2018-08-07T05:52:31.426Z,21.74
2018-08-07T05:55:00.348Z,22.11
2018-08-07T05:57:29.471Z,22.05
2018-08-07T05:59:59.415Z,22.24
2018-08-07T06:02:28.380Z,22.39
2018-08-07T06:04:57.979Z,22.59
2018-08-07T06:07:27.172Z,22.73
2018-08-07T06:09:56.093Z,22.71
2018-08-07T06:12:25.187Z,22.85
2018-08-07T06:14:54.846Z,22.77
2018-08-07T06:17:24.454Z,22.96
2018-08-07T06:19:54.104Z,23.27
2018-08-07T06:22:23.464Z,23.48
2018-08-07T06:24:52.784Z,23.64
2018-08-07T06:27:21.879Z,23.67
2018-08-07T06:29:51.118Z,23.88
2018-08-07T06:32:21.030Z,23.51
2018-08-07T06:34:50.073Z,23.88
2018-08-07T06:37:19.190Z,24.05
2018-08-07T06:39:48.267Z,24.07
2018-08-07T06:42:17.377Z,24.29
2018-08-07T06:44:47.102Z,24.33
2018-08-07T06:47:16.796Z,24.30
2018-08-07T06:49:45.812Z,24.48
2018-08-07T06:52:14.993Z,24.74
2018-08-07T06:54:44.030Z,24.83
2018-08-07T06:57:13.792Z,24.97
2018-08-07T06:59:42.921Z,25.22
2018-08-07T07:02:11.970Z,25.38
2018-08-07T07:04:41.303Z,25.40
2018-08-07T07:07:10.786Z,25.57
2018-08-07T07:09:40.394Z,25.70
2018-08-07T07:12:09.803Z,25.61
2018-08-07T07:14:38.894Z,25.59
2018-08-07T07:17:07.999Z,25.85
2018-08-07T07:19:37.321Z,25.77
2018-08-07T07:22:06.836Z,26.00
2018-08-07T07:24:36.105Z,26.20
2018-08-07T07:27:05.598Z,26.49
2018-08-07T07:29:34.542Z,26.41
2018-08-07T07:32:03.632Z,26.72
2018-08-07T07:34:32.937Z,26.80
2018-08-07T07:37:02.223Z,28.25
2018-08-07T07:39:31.898Z,29.96
2018-08-07T07:42:01.056Z,31.56
2018-08-07T07:44:30.276Z,32.92
2018-08-07T07:46:59.490Z,33.80
2018-08-07T07:49:28.728Z,33.10
2018-08-07T07:51:58.198Z,34.72
2018-08-07T07:54:27.302Z,34.97
2018-08-07T07:56:56.654Z,35.63
2018-08-07T07:59:26.050Z,35.63
2018-08-07T08:01:55.638Z,35.85
2018-08-07T08:04:25.289Z,35.29
2018-08-07T08:06:54.496Z,32.10
2018-08-07T08:09:23.730Z,31.50
2018-08-07T08:11:53.712Z,31.45
2018-08-07T08:14:22.703Z,31.75
2018-08-07T08:16:51.668Z,31.16
2018-08-07T08:19:20.909Z,31.43
2018-08-07T08:21:50.281Z,32.14
2018-08-07T08:24:19.347Z,31.52
2018-08-07T08:26:48.598Z,32.85
2018-08-07T08:29:17.756Z,32.71
2018-08-07T08:31:46.954Z,33.89
2018-08-07T08:34:15.898Z,33.33
2018-08-07T08:36:45.346Z,32.29
2018-08-07T08:39:14.682Z,31.91
2018-08-07T08:41:44.015Z,32.88
2018-08-07T08:44:13.310Z,33.96
2018-08-07T08:46:42.433Z,34.22
2018-08-07T08:49:11.503Z,34.67
2018-08-07T08:51:40.566Z,34.15
2018-08-07T08:54:09.697Z,34.04
2018-08-07T08:56:38.726Z,34.60
2018-08-07T08:59:07.918Z,35.24
2018-08-07T09:01:37.160Z,33.69
2018-08-07T09:04:06.704Z,33.61
2018-08-07T09:06:36.018Z,33.72
2018-08-07T09:09:09.680Z,33.93
2018-08-07T09:11:39.386Z,34.12
2018-08-07T09:14:10.264Z,33.62
2018-08-07T09:16:40.246Z,33.26
2018-08-07T09:19:09.434Z,32.97
2018-08-07T09:21:39.022Z,32.80
2018-08-07T09:24:08.774Z,33.15
2018-08-07T09:26:37.747Z,33.32
2018-08-07T09:29:07.455Z,33.32
2018-08-07T09:31:36.562Z,33.45
2018-08-07T09:34:06.061Z,33.39
2018-08-07T09:36:35.688Z,33.59
2018-08-07T09:39:09.155Z,33.45
2018-08-07T09:41:38.683Z,33.71
2018-08-07T09:44:09.183Z,33.54
2018-08-07T09:46:38.632Z,33.59
2018-08-07T09:49:08.913Z,33.88
2018-08-07T09:51:38.971Z,34.00
2018-08-07T09:54:08.275Z,34.33
2018-08-07T09:56:37.987Z,34.50
2018-08-07T09:59:07.262Z,35.65
2018-08-07T10:01:41.858Z,35.22
2018-08-07T10:04:11.347Z,34.84
2018-08-07T10:06:40.495Z,34.56
2018-08-07T10:09:10.628Z,34.18
2018-08-07T10:11:39.878Z,34.08
2018-08-07T10:14:08.971Z,34.17
2018-08-07T10:16:38.046Z,34.54
2018-08-07T10:19:07.211Z,35.50
2018-08-07T10:21:37.315Z,35.84
2018-08-07T10:24:06.606Z,35.78
2018-08-07T10:26:36.062Z,35.31
2018-08-07T10:29:05.953Z,37.32
2018-08-07T10:31:34.941Z,36.55
2018-08-07T10:34:04.194Z,36.34
2018-08-07T10:36:33.290Z,38.45
2018-08-07T10:39:03.345Z,37.36
2018-08-07T10:41:32.527Z,37.09
2018-08-07T10:44:02.039Z,37.65
2018-08-07T10:46:31.732Z,37.25
2018-08-07T10:49:01.214Z,37.50
2018-08-07T10:51:30.989Z,38.98
2018-08-07T10:54:00.280Z,38.56
2018-08-07T10:56:29.989Z,37.65
2018-08-07T10:58:59.258Z,39.58
2018-08-07T11:01:28.571Z,37.59
2018-08-07T11:03:58.080Z,36.92
2018-08-07T11:06:27.142Z,36.55
2018-08-07T11:08:56.606Z,37.46
2018-08-07T11:11:26.152Z,38.02
2018-08-07T11:13:55.244Z,37.40
2018-08-07T11:16:24.575Z,36.19
2018-08-07T11:18:53.630Z,37.23
2018-08-07T11:21:22.980Z,36.45
2018-08-07T11:23:52.023Z,36.89
2018-08-07T11:26:21.737Z,36.50
2018-08-07T11:28:50.818Z,36.65
2018-08-07T11:31:19.775Z,36.08
2018-08-07T11:33:49.658Z,36.22
2018-08-07T11:36:18.749Z,36.92
2018-08-07T11:38:47.877Z,36.55
2018-08-07T11:41:17.806Z,36.48
2018-08-07T11:43:47.046Z,36.83
2018-08-07T11:46:16.182Z,36.68
2018-08-07T11:48:45.210Z,36.41
2018-08-07T11:51:15.415Z,36.72
2018-08-07T11:53:44.910Z,36.28
2018-08-07T11:56:14.212Z,36.91
2018-08-07T11:58:43.291Z,36.81
2018-08-07T12:01:12.550Z,37.25
2018-08-07T12:03:41.558Z,37.33
2018-08-07T12:06:10.791Z,36.40
2018-08-07T12:08:40.616Z,36.59
2018-08-07T12:11:09.913Z,37.25
2018-08-07T12:13:39.090Z,37.37
2018-08-07T12:16:08.180Z,37.32
2018-08-07T12:18:37.659Z,37.10
2018-08-07T12:21:07.810Z,36.87
2018-08-07T12:23:37.126Z,37.67
2018-08-07T12:26:06.574Z,37.57
2018-08-07T12:28:35.695Z,36.88
2018-08-07T12:31:05.854Z,37.14
2018-08-07T12:33:35.281Z,36.70
2018-08-07T12:36:05.659Z,37.07
2018-08-07T12:38:34.704Z,36.89
2018-08-07T12:41:04.435Z,37.18
2018-08-07T12:43:33.738Z,36.76
2018-08-07T12:46:02.857Z,36.95
2018-08-07T12:48:32.926Z,36.44
2018-08-07T12:51:02.086Z,36.81
2018-08-07T12:53:31.981Z,37.22
2018-08-07T12:56:01.450Z,36.71
2018-08-07T12:58:30.555Z,37.19
2018-08-07T13:01:00.489Z,36.76
2018-08-07T13:03:29.998Z,36.59
2018-08-07T13:05:59.335Z,36.84
2018-08-07T13:08:28.523Z,37.12
2018-08-07T13:10:58.350Z,36.80
2018-08-07T13:13:27.854Z,37.55
2018-08-07T13:15:57.132Z,36.77
2018-08-07T13:18:26.147Z,37.15
2018-08-07T13:20:55.329Z,36.79
2018-08-07T13:23:24.590Z,36.77
2018-08-07T13:25:54.217Z,37.16
2018-08-07T13:28:23.207Z,36.93
2018-08-07T13:30:52.490Z,36.73
2018-08-07T13:33:21.579Z,37.02
2018-08-07T13:35:51.265Z,36.71
2018-08-07T13:38:20.426Z,36.42
2018-08-07T13:40:50.356Z,37.21
2018-08-07T13:43:19.782Z,37.01
2018-08-07T13:45:49.127Z,37.42
2018-08-07T13:48:18.229Z,36.85
2018-08-07T13:50:47.514Z,37.36
2018-08-07T13:53:16.835Z,37.12
2018-08-07T13:55:46.564Z,37.21
2018-08-07T13:58:16.987Z,36.71
2018-08-07T14:00:46.131Z,36.72
2018-08-07T14:03:15.201Z,36.98
2018-08-07T14:05:44.306Z,37.29
2018-08-07T14:08:14.376Z,37.11
2018-08-07T14:10:43.638Z,36.82
2018-08-07T14:13:13.111Z,36.99
2018-08-07T14:15:42.388Z,36.95
2018-08-07T14:18:12.861Z,36.71
2018-08-07T14:20:41.974Z,37.20
2018-08-07T14:23:11.023Z,37.02
2018-08-07T14:25:40.412Z,37.03
2018-08-07T14:28:09.681Z,37.41
2018-08-07T14:30:38.963Z,36.98
2018-08-07T14:33:08.807Z,36.91
2018-08-07T14:35:38.126Z,37.13
2018-08-07T14:38:07.086Z,37.07
2018-08-07T14:40:37.444Z,36.89
2018-08-07T14:43:07.155Z,37.01
2018-08-07T14:45:36.833Z,37.34
2018-08-07T14:48:06.937Z,37.06
2018-08-07T14:50:36.454Z,37.28
2018-08-07T14:53:06.140Z,37.23
2018-08-07T14:55:36.118Z,37.26
2018-08-07T14:58:05.375Z,37.49
2018-08-07T15:00:34.475Z,37.58
2018-08-07T15:03:03.760Z,37.11
2018-08-07T15:05:33.042Z,37.48
2018-08-07T15:08:02.194Z,37.25
2018-08-07T15:10:31.449Z,37.25
2018-08-07T15:13:00.451Z,37.26
2018-08-07T15:15:31.909Z,37.53
2018-08-07T15:18:01.038Z,37.15
2018-08-07T15:20:31.279Z,37.45
2018-08-07T15:23:00.641Z,37.40
2018-08-07T15:25:29.909Z,37.51
2018-08-07T15:27:59.227Z,37.53
2018-08-07T15:30:29.009Z,37.20
2018-08-07T15:32:58.477Z,37.01
2018-08-07T15:35:29.328Z,37.02
2018-08-07T15:37:59.198Z,36.98
2018-08-07T15:40:28.551Z,37.12
2018-08-07T15:42:57.554Z,37.26
2018-08-07T15:45:26.872Z,37.44
2018-08-07T15:47:56.099Z,37.50
2018-08-07T15:50:25.391Z,37.40
2018-08-07T15:52:55.789Z,37.45
2018-08-07T15:55:27.542Z,37.61
2018-08-07T15:57:56.778Z,37.31
2018-08-07T16:00:28.279Z,37.00
2018-08-07T16:02:57.415Z,36.92
2018-08-07T16:05:26.627Z,37.01
2018-08-07T16:07:55.615Z,36.91
2018-08-07T16:10:24.942Z,36.73
2018-08-07T16:12:54.806Z,37.04
2018-08-07T16:15:24.250Z,36.95
2018-08-07T16:17:53.785Z,37.06
2018-08-07T16:20:23.492Z,37.09
2018-08-07T16:22:52.461Z,37.08
2018-08-07T16:25:22.070Z,37.09
2018-08-07T16:27:51.352Z,37.14
2018-08-07T16:30:23.735Z,37.06
2018-08-07T16:32:52.722Z,36.89
2018-08-07T16:35:21.762Z,36.90
2018-08-07T16:37:50.942Z,36.95
2018-08-07T16:40:21.875Z,36.54
2018-08-07T16:42:51.852Z,36.42
2018-08-07T16:45:21.564Z,36.43
2018-08-07T16:47:50.615Z,36.23
2018-08-07T16:50:22.941Z,36.31
2018-08-07T16:52:52.967Z,36.28
2018-08-07T16:55:23.218Z,36.41
2018-08-07T16:57:52.218Z,36.21
2018-08-07T17:00:21.243Z,36.11
2018-08-07T17:02:50.494Z,36.00
2018-08-07T17:05:19.581Z,36.00
2018-08-07T17:07:49.214Z,35.81
2018-08-07T17:10:21.529Z,35.61
2018-08-07T17:12:50.495Z,35.79
2018-08-07T17:15:19.510Z,35.67
2018-08-07T17:17:48.832Z,35.72
2018-08-07T17:20:19.102Z,35.53
2018-08-07T17:22:48.436Z,35.59
2018-08-07T17:25:18.898Z,35.31
2018-08-07T17:27:48.524Z,35.03
2018-08-07T17:30:20.178Z,35.13
2018-08-07T17:32:49.183Z,35.13
2018-08-07T17:35:20.257Z,35.06
2018-08-07T17:37:51.370Z,35.16
2018-08-07T17:40:22.026Z,35.25
2018-08-07T17:42:51.011Z,35.22
2018-08-07T17:45:20.196Z,35.19
2018-08-07T17:47:49.324Z,35.14
2018-08-07T17:50:20.973Z,34.82
2018-08-07T17:52:50.995Z,34.83
2018-08-07T17:55:20.301Z,34.88
2018-08-07T17:57:50.606Z,34.92
2018-08-07T18:00:22.080Z,34.69
2018-08-07T18:02:51.023Z,34.57
2018-08-07T18:05:20.189Z,34.49
2018-08-07T18:07:50.972Z,34.53
2018-08-07T18:10:21.382Z,34.48
2018-08-07T18:12:51.367Z,34.25
2018-08-07T18:15:21.611Z,33.90
2018-08-07T18:17:51.610Z,33.69
2018-08-07T18:20:22.931Z,33.95
2018-08-07T18:22:52.197Z,33.49
2018-08-07T18:25:21.306Z,33.72
2018-08-07T18:27:50.391Z,33.60
2018-08-07T18:30:21.422Z,33.60
2018-08-07T18:32:50.622Z,33.54
2018-08-07T18:35:22.044Z,33.56
2018-08-07T18:37:51.315Z,33.49
2018-08-07T18:40:20.337Z,33.39
2018-08-07T18:42:49.690Z,33.40
2018-08-07T18:45:18.995Z,33.33
2018-08-07T18:47:48.261Z,33.27
2018-08-07T18:50:20.213Z,33.18
2018-08-07T18:52:49.338Z,33.03
2018-08-07T18:55:18.774Z,32.90
2018-08-07T18:57:49.811Z,32.78
2018-08-07T19:00:21.984Z,32.64
2018-08-07T19:02:51.863Z,32.58
2018-08-07T19:05:22.636Z,32.52
2018-08-07T19:07:52.120Z,32.49
2018-08-07T19:10:21.362Z,32.37
2018-08-07T19:12:50.850Z,32.31
2018-08-07T19:15:20.815Z,32.29
2018-08-07T19:17:50.157Z,32.20
2018-08-07T19:20:21.065Z,32.15
2018-08-07T19:22:50.388Z,32.15
2018-08-07T19:25:20.011Z,32.02
2018-08-07T19:27:49.590Z,31.78
2018-08-07T19:30:21.985Z,31.69
2018-08-07T19:32:51.250Z,31.44
2018-08-07T19:35:20.530Z,31.23
2018-08-07T19:37:49.806Z,31.06
2018-08-07T19:40:20.127Z,31.04
2018-08-07T19:42:50.459Z,31.02
2018-08-07T19:45:20.015Z,30.99
2018-08-07T19:47:49.278Z,30.86
2018-08-07T19:50:20.208Z,30.88
2018-08-07T19:52:49.363Z,30.74
2018-08-07T19:55:20.704Z,30.71
2018-08-07T19:57:50.039Z,30.66
2018-08-07T20:00:23.900Z,30.44
2018-08-07T20:02:53.319Z,30.44
2018-08-07T20:05:23.219Z,30.39
2018-08-07T20:07:53.366Z,30.32
2018-08-07T20:10:23.045Z,30.21
2018-08-07T20:12:52.966Z,30.07
2018-08-07T20:15:25.316Z,30.04
2018-08-07T20:17:55.388Z,29.90
2018-08-07T20:20:25.323Z,29.64
2018-08-07T20:22:55.116Z,29.71
2018-08-07T20:25:24.774Z,29.73
2018-08-07T20:27:54.112Z,29.76
2018-08-07T20:30:24.354Z,29.84
2018-08-07T20:32:55.468Z,29.76
2018-08-07T20:35:24.507Z,29.73
2018-08-07T20:37:53.754Z,29.63
2018-08-07T20:40:25.529Z,29.65
2018-08-07T20:42:56.240Z,29.57
2018-08-07T20:45:25.374Z,29.53
2018-08-07T20:47:54.627Z,29.52
2018-08-07T20:50:25.797Z,29.50
2018-08-07T20:52:56.029Z,29.44
2018-08-07T20:55:25.380Z,29.40
2018-08-07T20:57:54.333Z,29.28
2018-08-07T21:00:26.092Z,29.20
2018-08-07T21:02:55.468Z,29.15
2018-08-07T21:05:25.300Z,29.09
2018-08-07T21:07:54.543Z,29.15
2018-08-07T21:10:25.147Z,28.99
2018-08-07T21:12:54.799Z,28.91
2018-08-07T21:15:24.249Z,28.87
2018-08-07T21:17:53.417Z,28.82
2018-08-07T21:20:23.679Z,28.98
2018-08-07T21:22:53.157Z,28.59
2018-08-07T21:25:23.623Z,28.42
2018-08-07T21:27:54.703Z,28.49
2018-08-07T21:30:26.391Z,28.71
2018-08-07T21:32:55.519Z,28.92
2018-08-07T21:35:24.639Z,29.13
2018-08-07T21:37:53.953Z,29.25
2018-08-07T21:40:24.012Z,29.42
2018-08-07T21:42:55.767Z,29.51
2018-08-07T21:45:25.490Z,29.21
2018-08-07T21:47:54.588Z,28.87
2018-08-07T21:50:25.142Z,29.05
2018-08-07T21:52:54.439Z,28.99
2018-08-07T21:55:23.760Z,28.97
2018-08-07T21:57:53.182Z,28.83
2018-08-07T22:00:47.909Z,28.72
2018-08-07T22:03:17.069Z,28.56
2018-08-07T22:05:46.727Z,28.17
2018-08-07T22:08:16.367Z,28.38
2018-08-07T22:10:45.451Z,28.23
2018-08-07T22:13:14.690Z,27.87
2018-08-07T22:15:43.720Z,28.07
2018-08-07T22:18:13.131Z,27.99
2018-08-07T22:20:42.664Z,28.08
2018-08-07T22:23:11.678Z,28.07
2018-08-07T22:25:41.353Z,27.99
2018-08-07T22:28:10.422Z,27.93
2018-08-07T22:30:39.543Z,28.01
2018-08-07T22:33:09.203Z,27.89
2018-08-07T22:35:38.161Z,27.85
2018-08-07T22:38:07.402Z,27.86
2018-08-07T22:40:36.521Z,27.80
2018-08-07T22:43:06.657Z,27.64
2018-08-07T22:45:35.885Z,27.13
2018-08-07T22:48:07.895Z,27.11
2018-08-07T22:50:37.141Z,27.48
2018-08-07T22:53:06.694Z,27.66
2018-08-07T22:55:36.096Z,27.82
2018-08-07T22:58:05.831Z,27.87
2018-08-07T23:00:35.052Z,27.93
2018-08-07T23:03:04.871Z,28.01
2018-08-07T23:05:34.011Z,28.03
2018-08-07T23:08:03.022Z,28.00
2018-08-07T23:10:32.886Z,27.92
2018-08-07T23:13:02.114Z,27.90
2018-08-07T23:15:31.106Z,28.00
2018-08-07T23:18:00.136Z,27.95
2018-08-07T23:20:30.073Z,28.01
2018-08-07T23:22:59.314Z,28.04
2018-08-07T23:25:28.302Z,27.96
2018-08-07T23:27:57.786Z,27.87
2018-08-07T23:30:27.010Z,27.80
2018-08-07T23:32:56.717Z,27.68
2018-08-07T23:35:25.638Z,27.45
2018-08-07T23:37:54.913Z,27.36
2018-08-07T23:40:24.422Z,27.49
2018-08-07T23:42:53.754Z,27.44
2018-08-07T23:45:23.269Z,27.40
2018-08-07T23:47:52.659Z,27.28
2018-08-07T23:50:21.619Z,27.33
2018-08-07T23:52:50.730Z,27.28
2018-08-07T23:55:20.222Z,27.21
2018-08-07T23:57:50.263Z,27.23
